Time;durP1;ratioP1;P1;durP2;ratioP2;P2;SDS_P1;SDS_P2;PMS_P1;PMS_P2;Temp;Humidity;BMP_temperature;BMP_pressure;BME280_temperature;BME280_humidity;BME280_pressure;Samples;Min_cycle;Max_cycle;Signal;HPM_P1;HPM_P2
2022/05/27 00:01:33;;;;;;;2.25;1.52;;;;;;;19.53;48.60;100265.25;5008675;28;97967;-72
2022/05/27 00:04:00;;;;;;;6.40;1.45;;;;;;;19.52;48.66;100254.69;4989105;28;100796;-72
2022/05/27 00:06:27;;;;;;;3.72;1.77;;;;;;;19.65;48.49;100277.69;4983109;28;101365;-73
2022/05/27 00:08:53;;;;;;;6.07;2.15;;;;;;;19.59;48.71;100274.59;4973451;28;97367;-72
2022/05/27 00:11:19;;;;;;;4.03;1.52;;;;;;;19.65;48.41;100266.19;4984448;28;96947;-73
2022/05/27 00:13:45;;;;;;;4.22;1.55;;;;;;;19.68;48.32;100269.47;4990386;28;97552;-73
2022/05/27 00:16:11;;;;;;;2.75;1.50;;;;;;;19.53;48.35;100257.25;4984704;28;97748;-72
2022/05/27 00:18:37;;;;;;;2.65;1.52;;;;;;;19.59;48.54;100262.13;4988478;28;97562;-72
2022/05/27 00:21:03;;;;;;;3.15;1.40;;;;;;;19.62;48.58;100258.41;4990523;28;97323;-73
2022/05/27 00:23:29;;;;;;;2.47;1.33;;;;;;;19.49;48.68;100229.19;4972798;28;101288;-72
2022/05/27 00:25:55;;;;;;;3.72;1.70;;;;;;;19.63;48.42;100249.44;4976706;28;101076;-75
2022/05/27 00:28:20;;;;;;;4.07;1.52;;;;;;;19.67;48.18;100243.84;4976502;28;96751;-72
2022/05/27 00:30:46;;;;;;;2.13;1.35;;;;;;;19.61;48.10;100240.75;4996067;28;98518;-73
2022/05/27 00:33:12;;;;;;;5.18;1.90;;;;;;;19.53;48.61;100243.09;4977832;28;97919;-72
2022/05/27 00:35:38;;;;;;;1.70;1.08;;;;;;;19.54;48.49;100242.13;4979118;28;101452;-72
2022/05/27 00:38:03;;;;;;;2.83;1.50;;;;;;;19.48;48.51;100226.59;4974545;28;97268;-74
2022/05/27 00:40:41;;;;;;;2.22;1.30;;;;;;;19.56;48.38;100232.22;4978601;28;96923;-73
2022/05/27 00:43:07;;;;;;;5.32;2.05;;;;;;;19.58;48.65;100239.16;4977262;28;101525;-72
2022/05/27 00:45:35;;;;;;;1.98;1.27;;;;;;;19.66;48.12;100227.94;4962206;28;101211;-73
2022/05/27 00:48:02;;;;;;;3.05;1.38;;;;;;;19.53;48.47;100212.00;4960774;28;96749;-74
2022/05/27 00:50:30;;;;;;;2.83;1.30;;;;;;;19.54;48.52;100227.00;5002080;28;96873;-72
2022/05/27 00:52:56;;;;;;;2.17;1.40;;;;;;;19.54;48.69;100227.00;5004022;28;100828;-72
2022/05/27 00:55:26;;;;;;;2.10;1.15;;;;;;;19.53;48.58;100224.47;4961365;28;100694;-73
2022/05/27 00:57:57;;;;;;;2.80;1.23;;;;;;;19.60;48.30;100221.22;4994893;28;97186;-72
2022/05/27 01:00:25;;;;;;;3.60;1.25;;;;;;;19.46;48.30;100197.47;4991581;28;97097;-73
2022/05/27 01:02:50;;;;;;;2.78;1.60;;;;;;;19.42;48.59;100201.28;4979322;28;101199;-72
2022/05/27 01:05:19;;;;;;;4.03;1.02;;;;;;;19.26;48.66;100182.06;4979701;28;97477;-73
2022/05/27 01:07:44;;;;;;;4.68;1.58;;;;;;;19.42;48.57;100204.78;4974151;28;96903;-76
2022/05/27 01:10:16;;;;;;;2.20;1.13;;;;;;;19.53;48.43;100205.84;4986014;28;96810;-72
2022/05/27 01:12:45;;;;;;;2.13;1.17;;;;;;;19.50;48.70;100211.38;4985751;28;100672;-74
2022/05/27 01:15:19;;;;;;;2.65;1.35;;;;;;;19.51;48.57;100207.75;4991202;28;101908;-73
2022/05/27 01:17:57;;;;;;;2.55;1.17;;;;;;;19.56;48.64;100203.78;4996562;28;98253;-76
2022/05/27 01:20:30;;;;;;;4.00;1.33;;;;;;;19.46;48.46;100189.47;4972351;28;97297;-73
2022/05/27 01:23:17;;;;;;;4.47;1.50;;;;;;;19.48;48.89;100200.84;4999678;28;100806;-72
2022/05/27 01:25:55;;;;;;;4.18;1.30;;;;;;;19.52;48.75;100204.13;5004383;28;101542;-76
2022/05/27 01:28:20;;;;;;;3.22;1.35;;;;;;;19.42;48.83;100193.31;4994679;28;97299;-73
2022/05/27 01:30:54;;;;;;;2.45;1.27;;;;;;;19.43;48.89;100195.00;4998525;28;96922;-75
2022/05/27 01:33:27;;;;;;;3.40;1.30;;;;;;;19.49;48.67;100183.91;4960116;28;101150;-73
2022/05/27 01:36:12;;;;;;;3.53;1.30;;;;;;;19.43;48.91;100185.22;4994288;28;97560;-73
2022/05/27 01:38:53;;;;;;;2.42;1.50;;;;;;;19.45;48.61;100179.75;4991799;28;96802;-72
2022/05/27 01:41:37;;;;;;;4.25;1.50;;;;;;;19.44;48.40;100170.09;4997136;28;97292;-72
2022/05/27 01:44:11;;;;;;;2.55;1.30;;;;;;;19.34;48.53;100161.91;4985766;28;101518;-73
2022/05/27 01:46:43;;;;;;;3.40;1.60;;;;;;;19.34;48.71;100166.38;4977896;28;97724;-72
2022/05/27 01:49:11;;;;;;;;;;;;;;;19.36;48.68;100161.81;4987918;28;97293;-72
2022/05/27 01:51:44;;;;;;;3.75;1.40;;;;;;;19.40;48.38;100169.47;4996983;28;96788;-72
2022/05/27 01:54:20;;;;;;;3.40;1.52;;;;;;;19.34;48.56;100161.06;4983699;28;101635;-72
2022/05/27 01:56:52;;;;;;;7.25;1.98;;;;;;;19.32;48.50;100152.38;5008344;28;97894;-77
2022/05/27 01:59:24;;;;;;;3.63;1.42;;;;;;;19.30;48.69;100163.13;4993159;28;97500;-74
2022/05/27 02:01:53;;;;;;;4.10;1.52;;;;;;;19.22;48.52;100133.53;5003277;28;96874;-73
2022/05/27 02:04:36;;;;;;;4.68;1.48;;;;;;;19.30;48.49;100141.81;4968995;28;101276;-73
2022/05/27 02:07:08;;;;;;;3.63;1.50;;;;;;;19.38;47.88;100146.59;4960288;28;101338;-72
2022/05/27 02:09:44;;;;;;;4.15;1.30;;;;;;;19.36;47.86;100141.38;5000981;28;96762;-72
2022/05/27 02:12:25;;;;;;;3.00;1.30;;;;;;;19.33;48.16;100138.94;4987348;28;97032;-73
2022/05/27 02:14:57;;;;;;;3.40;1.70;;;;;;;19.30;47.96;100138.31;4986948;28;101930;-72
2022/05/27 02:17:33;;;;;;;3.90;1.58;;;;;;;19.33;48.04;100124.78;4978260;28;101013;-73
2022/05/27 02:20:06;;;;;;;2.33;1.10;;;;;;;19.22;47.94;100113.09;4993224;28;96876;-73
2022/05/27 02:22:38;;;;;;;5.35;1.95;;;;;;;19.37;47.77;100121.78;4975444;28;97953;-73
2022/05/27 02:25:12;;;;;;;2.60;1.20;;;;;;;19.27;47.63;100106.63;4976562;28;101131;-72
2022/05/27 02:28:04;;;;;;;2.75;1.20;;;;;;;19.34;47.72;100110.50;4993902;28;101336;-74
2022/05/27 02:30:31;;;;;;;1.67;1.08;;;;;;;19.33;47.70;100125.63;4972031;28;98015;-74
2022/05/27 02:35:46;;;;;;;3.58;1.13;;;;;;;19.40;47.66;100112.72;4985252;28;97908;-74
2022/05/27 02:38:12;;;;;;;4.78;1.17;;;;;;;19.39;47.80;100111.88;4977968;28;101200;-74
2022/05/27 02:41:10;;;;;;;1.67;0.98;;;;;;;19.21;48.18;100097.28;4978313;28;97313;-74
2022/05/27 02:43:51;;;;;;;3.00;1.40;;;;;;;19.36;47.85;100116.56;4972586;28;97076;-74
2022/05/27 02:46:35;;;;;;;7.97;1.40;;;;;;;19.32;47.99;100107.97;4988426;28;97968;-74
2022/05/27 02:49:11;;;;;;;4.28;1.33;;;;;;;19.29;47.74;100084.25;4993709;28;97425;-74
2022/05/27 02:51:52;;;;;;;4.63;1.58;;;;;;;19.34;48.08;100098.03;4992320;28;96787;-74
2022/05/27 02:54:31;;;;;;;2.03;1.40;;;;;;;19.01;47.97;100034.88;4992872;28;96942;-74
2022/05/27 02:57:05;;;;;;;3.33;1.60;;;;;;;19.32;48.15;100086.69;4976120;28;102011;-74
2022/05/27 02:59:32;;;;;;;3.15;1.33;;;;;;;19.21;48.00;100060.00;5005869;28;97460;-77
2022/05/27 03:02:08;;;;;;;2.65;1.20;;;;;;;19.21;48.05;100060.84;4981427;28;96930;-75
2022/05/27 03:04:34;;;;;;;4.10;1.20;;;;;;;19.28;47.92;100071.03;4987878;28;97241;-75
2022/05/27 03:07:15;;;;;;;4.72;1.50;;;;;;;19.30;48.05;100077.97;4988020;28;98066;-74
2022/05/27 03:09:44;;;;;;;9.00;2.17;;;;;;;19.29;48.21;100076.28;4975905;28;97353;-74
2022/05/27 03:12:39;;;;;;;5.78;1.35;;;;;;;19.32;48.12;100073.38;4976322;28;97181;-74
2022/05/27 03:15:28;;;;;;;5.10;1.20;;;;;;;19.28;48.25;100068.38;4989950;28;97030;-74
2022/05/27 03:17:54;;;;;;;1.85;1.10;;;;;;;19.32;48.25;100076.03;5011843;28;101585;-75
2022/05/27 03:20:47;;;;;;;3.63;1.30;;;;;;;19.25;48.43;100066.78;4992711;28;99143;-74
2022/05/27 03:23:35;;;;;;;6.95;1.13;;;;;;;19.23;48.62;100064.25;4988418;28;96771;-74
2022/05/27 03:26:35;;;;;;;5.10;1.42;;;;;;;19.30;48.61;100072.63;4997851;28;96925;-74
2022/05/27 03:29:34;;;;;;;1.83;1.30;;;;;;;19.26;48.65;100068.50;5001333;28;97925;-74
2022/05/27 03:32:35;;;;;;;6.28;1.50;;;;;;;19.28;48.69;100066.56;4968774;28;98530;-74
2022/05/27 03:35:17;;;;;;;1.92;1.10;;;;;;;19.21;48.91;100062.69;4996421;28;97080;-74
2022/05/27 03:38:06;;;;;;;5.93;1.17;;;;;;;19.09;48.68;100040.50;4986480;28;97195;-74
2022/05/27 03:40:52;;;;;;;2.00;1.10;;;;;;;19.26;48.86;100057.88;4975623;28;100689;-74
2022/05/27 03:43:18;;;;;;;2.40;1.20;;;;;;;19.20;49.09;100056.50;4961624;28;101541;-74
2022/05/27 03:45:53;;;;;;;4.80;1.50;;;;;;;19.22;49.13;100049.25;4966298;28;96735;-73
2022/05/27 03:48:20;;;;;;;4.07;1.10;;;;;;;19.21;48.84;100054.69;4987115;28;96790;-75
2022/05/27 03:50:47;;;;;;;4.03;1.50;;;;;;;19.28;49.06;100057.75;4977442;28;101330;-75
2022/05/27 03:53:13;;;;;;;3.35;1.33;;;;;;;19.11;48.94;100025.28;4978245;28;97763;-74
2022/05/27 03:55:44;;;;;;;1.75;1.15;;;;;;;19.24;49.08;100054.47;4992640;28;96759;-74
2022/05/27 03:58:19;;;;;;;2.40;1.30;;;;;;;19.27;49.28;100040.94;4992727;28;97130;-74
2022/05/27 04:00:44;;;;;;;4.47;1.30;;;;;;;19.25;49.04;100039.34;4975870;28;101557;-74
2022/05/27 04:03:11;;;;;;;4.03;1.33;;;;;;;19.29;49.50;100041.69;4979550;28;97384;-74
2022/05/27 04:05:38;;;;;;;2.13;1.25;;;;;;;19.26;49.26;100054.34;4972384;28;96759;-74
2022/05/27 04:08:04;;;;;;;4.72;1.30;;;;;;;19.13;49.65;100039.28;4973774;28;97640;-74
2022/05/27 04:10:30;;;;;;;3.65;1.50;;;;;;;19.19;49.46;100044.16;4968458;28;101203;-74
2022/05/27 04:12:55;;;;;;;7.05;1.52;;;;;;;19.22;49.70;100043.91;4984933;28;97437;-75
2022/05/27 04:15:21;;;;;;;5.05;1.63;;;;;;;19.21;49.69;100033.41;5001132;28;97448;-74
2022/05/27 04:17:47;;;;;;;3.83;1.45;;;;;;;19.26;49.43;100044.56;4984499;28;97124;-73
2022/05/27 04:20:15;;;;;;;7.60;1.52;;;;;;;19.25;49.73;100048.16;5007018;28;97606;-74
2022/05/27 04:22:41;;;;;;;2.88;1.38;;;;;;;19.22;49.64;100049.25;4990644;28;101137;-74
2022/05/27 04:25:07;;;;;;;7.20;2.03;;;;;;;19.15;49.47;100020.56;4981069;28;97294;-74
2022/05/27 04:27:33;;;;;;;5.10;1.52;;;;;;;19.35;49.31;100049.19;4983476;28;97255;-75
2022/05/27 04:29:59;;;;;;;4.80;1.70;;;;;;;19.27;49.41;100032.94;4991861;28;98186;-74
2022/05/27 04:32:25;;;;;;;1.90;1.20;;;;;;;19.23;49.46;100012.88;4990282;28;101719;-75
2022/05/27 04:34:52;;;;;;;5.68;1.50;;;;;;;19.31;49.43;100026.41;4976223;28;97099;-74
2022/05/27 04:37:18;;;;;;;5.38;1.50;;;;;;;19.27;49.60;100024.97;4965917;28;97694;-75
2022/05/27 04:39:44;;;;;;;5.38;1.73;;;;;;;19.29;49.87;100025.72;4982888;28;98027;-74
2022/05/27 04:42:10;;;;;;;3.00;1.40;;;;;;;19.31;49.51;100012.28;4961764;28;100748;-74
2022/05/27 04:44:35;;;;;;;3.70;1.83;;;;;;;19.30;49.65;100018.56;4979092;28;97128;-74
2022/05/27 04:47:02;;;;;;;4.57;1.48;;;;;;;19.25;49.86;100015.41;4990773;28;97008;-74
2022/05/27 04:52:11;;;;;;;4.22;1.50;;;;;;;19.32;49.87;100012.19;4999704;28;97959;-74
2022/05/27 04:54:37;;;;;;;4.25;1.30;;;;;;;19.30;49.98;100019.41;4983399;28;96925;-74
2022/05/27 04:57:03;;;;;;;4.63;1.38;;;;;;;19.33;50.12;100021.84;4976079;28;96880;-74
2022/05/27 04:59:29;;;;;;;9.80;1.60;;;;;;;19.26;50.22;100009.97;4986998;28;97898;-76
2022/05/27 05:01:54;;;;;;;6.45;1.60;;;;;;;19.32;50.02;100009.50;4995540;28;97464;-77
2022/05/27 05:04:20;;;;;;;8.82;1.52;;;;;;;19.30;50.32;100005.25;4979036;28;96839;-74
2022/05/27 05:06:45;;;;;;;5.63;1.60;;;;;;;19.41;50.09;100019.47;4977214;28;96796;-74
2022/05/27 05:09:11;;;;;;;2.83;1.33;;;;;;;19.40;50.03;100008.91;4981996;28;97691;-75
2022/05/27 05:11:37;;;;;;;2.92;1.20;;;;;;;19.44;49.96;100007.72;4987885;28;101828;-75
2022/05/27 05:14:03;;;;;;;5.97;1.40;;;;;;;19.40;50.25;99995.59;5005971;28;97471;-75
2022/05/27 05:16:29;;;;;;;2.80;1.00;;;;;;;19.37;50.52;100009.16;4984815;28;97320;-75
2022/05/27 05:18:55;;;;;;;5.25;1.65;;;;;;;19.42;50.67;100004.34;4979735;28;97992;-79
2022/05/27 05:21:20;;;;;;;3.65;1.48;;;;;;;19.42;50.51;100009.66;4985354;28;97972;-76
2022/05/27 05:23:46;;;;;;;4.45;1.20;;;;;;;19.30;50.61;99990.13;4960813;28;98610;-74
2022/05/27 05:26:12;;;;;;;6.80;1.60;;;;;;;19.41;50.57;99995.50;4977329;28;97659;-74
2022/05/27 05:28:37;;;;;;;4.55;1.50;;;;;;;19.31;50.92;99975.03;4974881;28;98028;-75
2022/05/27 05:31:03;;;;;;;2.45;1.42;;;;;;;19.37;51.12;99987.84;4959139;28;101348;-74
2022/05/27 05:33:29;;;;;;;5.43;1.35;;;;;;;19.42;50.94;99999.84;4988375;28;96800;-74
2022/05/27 05:35:54;;;;;;;3.78;1.20;;;;;;;19.35;50.72;99981.81;4993216;28;97066;-80
2022/05/27 05:38:20;;;;;;;5.63;1.30;;;;;;;19.14;51.01;99947.91;5008105;28;101566;-75
2022/05/27 05:40:46;;;;;;;3.33;1.42;;;;;;;19.41;51.07;99990.19;4992467;28;97748;-79
2022/05/27 05:43:13;;;;;;;4.97;1.25;;;;;;;19.47;50.91;99996.00;4974948;28;97428;-78
2022/05/27 05:45:40;;;;;;;6.43;1.55;;;;;;;19.36;50.75;99973.72;4998267;28;97301;-77
2022/05/27 05:48:06;;;;;;;4.65;1.40;;;;;;;19.58;50.88;99986.25;4959875;28;101673;-77
2022/05/27 05:50:33;;;;;;;3.10;1.35;;;;;;;19.71;51.21;99983.50;4967318;28;98197;-81
2022/05/27 05:52:59;;;;;;;11.93;2.10;;;;;;;19.64;50.94;99964.47;4978451;28;97063;-82
2022/05/27 05:55:26;;;;;;;5.85;1.50;;;;;;;19.81;50.86;99978.28;4959757;28;96882;-84
2022/05/27 05:57:52;;;;;;;2.03;1.10;;;;;;;19.89;50.80;99981.22;4991347;28;98466;-84
2022/05/27 06:00:23;;;;;;;4.63;1.40;;;;;;;19.83;50.63;99960.38;4955342;28;100227;-84
2022/05/27 06:02:49;;;;;;;3.17;1.20;;;;;;;19.85;50.49;99959.31;4974110;28;97404;-84
2022/05/27 06:05:15;;;;;;;3.65;1.30;;;;;;;20.06;50.48;99979.91;4981801;28;97485;-84
2022/05/27 06:07:41;;;;;;;2.90;1.50;;;;;;;20.06;50.32;99959.41;4974356;28;100186;-84
2022/05/27 06:10:08;;;;;;;5.13;1.30;;;;;;;20.22;49.96;99971.56;4974954;28;100127;-84
2022/05/27 06:12:36;;;;;;;5.95;1.55;;;;;;;20.15;50.18;99968.50;4974637;28;97085;-75
2022/05/27 06:15:05;;;;;;;3.38;1.20;;;;;;;20.01;50.70;99950.97;4983926;28;96902;-85
2022/05/27 06:17:30;;;;;;;5.82;1.48;;;;;;;20.14;50.12;99969.47;4973884;28;100581;-84
2022/05/27 06:19:56;;;;;;;14.43;2.03;;;;;;;20.12;50.14;99974.06;4976960;28;101310;-83
2022/05/27 06:22:21;;;;;;;6.18;1.65;;;;;;;19.78;50.37;99941.25;4970909;28;98043;-81
2022/05/27 06:24:47;;;;;;;9.30;1.77;;;;;;;19.65;50.47;99944.88;4985507;28;97093;-82
2022/05/27 06:27:12;;;;;;;9.52;2.88;;;;;;;19.76;50.84;99977.81;4999879;28;101403;-82
2022/05/27 06:35:07;;;;;;;4.78;0.98;;;;;;;19.58;51.21;99977.41;5003029;28;96877;-82
2022/05/27 06:37:33;;;;;;;4.53;1.40;;;;;;;19.46;51.34;99965.88;4989612;28;97401;-83
2022/05/27 06:39:58;;;;;;;4.22;1.20;;;;;;;19.50;51.69;99977.16;4975004;28;101556;-83
2022/05/27 06:42:24;;;;;;;3.10;1.40;;;;;;;19.53;51.58;99974.25;4974838;28;97249;-83
2022/05/27 06:44:54;;;;;;;3.95;1.20;;;;;;;19.39;52.20;99977.94;4971377;28;96825;-78
2022/05/27 06:47:19;;;;;;;1.92;1.08;;;;;;;19.48;52.55;99982.56;4972410;28;102015;-78
2022/05/27 06:49:45;;;;;;;2.53;1.30;;;;;;;19.43;52.38;99982.94;4987243;28;101243;-78
2022/05/27 06:52:13;;;;;;;8.70;1.80;;;;;;;19.34;52.87;99961.47;4982949;28;98315;-78
2022/05/27 06:54:39;;;;;;;2.67;1.40;;;;;;;19.39;52.83;99976.13;4999545;28;97368;-78
2022/05/27 06:57:06;;;;;;;4.07;1.60;;;;;;;19.42;52.85;99965.25;4995983;28;97484;-78
2022/05/27 06:59:32;;;;;;;4.10;1.48;;;;;;;19.45;53.48;99974.81;4990266;28;98050;-78
2022/05/27 07:01:58;;;;;;;4.05;1.52;;;;;;;19.48;53.21;99976.41;4991374;28;96695;-78
2022/05/27 07:04:23;;;;;;;6.53;1.77;;;;;;;19.44;52.78;99966.00;4992902;28;97451;-78
2022/05/27 07:06:49;;;;;;;4.70;1.60;;;;;;;19.53;52.92;99974.25;4955644;28;102238;-78
2022/05/27 07:09:20;;;;;;;5.65;1.30;;;;;;;19.26;53.40;99943.47;4969922;28;101586;-77
2022/05/27 07:11:47;;;;;;;5.35;1.88;;;;;;;19.44;53.43;99992.59;4991724;28;96765;-78
2022/05/27 07:14:14;;;;;;;5.47;2.10;;;;;;;19.42;53.74;99991.03;5012465;28;97529;-78
2022/05/27 07:16:40;;;;;;;4.32;1.75;;;;;;;19.40;54.21;99983.19;4999525;28;100943;-79
2022/05/27 07:19:06;;;;;;;5.63;1.60;;;;;;;19.38;54.27;99976.28;4996324;28;101039;-78
2022/05/27 07:21:36;;;;;;;4.15;1.40;;;;;;;19.31;54.55;99988.31;4978935;28;97731;-78
2022/05/27 07:24:01;;;;;;;6.07;1.80;;;;;;;19.38;54.35;99976.28;4998165;28;96903;-76
2022/05/27 07:26:27;;;;;;;7.13;1.50;;;;;;;19.11;54.73;99944.59;4987032;28;101530;-78
2022/05/27 07:28:53;;;;;;;7.22;1.63;;;;;;;19.29;54.79;99992.94;5001369;28;97411;-79
2022/05/27 07:31:19;;;;;;;6.53;1.95;;;;;;;19.12;55.54;99971.09;5002945;28;97250;-78
2022/05/27 07:33:45;;;;;;;3.10;1.40;;;;;;;19.25;55.55;100002.09;4992755;28;97353;-76
2022/05/27 07:36:11;;;;;;;6.47;2.83;;;;;;;19.18;55.79;99991.06;4973074;28;101480;-78
2022/05/27 07:38:37;;;;;;;3.58;1.50;;;;;;;19.23;55.83;99995.09;4987243;28;97542;-79
2022/05/27 07:41:03;;;;;;;3.83;1.88;;;;;;;19.11;56.47;100005.78;4982152;28;97251;-80
2022/05/27 07:43:29;;;;;;;8.40;1.80;;;;;;;19.16;56.65;100015.13;4984212;28;97355;-86
2022/05/27 07:45:56;;;;;;;13.13;2.55;;;;;;;18.97;57.16;100014.81;4984934;28;100608;-80
2022/05/27 07:48:22;;;;;;;4.03;1.75;;;;;;;18.90;57.67;100010.88;4980052;28;101055;-79
2022/05/27 07:50:48;;;;;;;4.75;1.70;;;;;;;18.98;58.00;100027.13;4988185;28;97425;-80
2022/05/27 07:53:15;;;;;;;3.42;1.67;;;;;;;19.00;58.21;100025.22;5002572;28;97434;-85
2022/05/27 07:55:41;;;;;;;2.75;1.45;;;;;;;18.87;58.87;100025.25;4978862;28;98108;-84
2022/05/27 07:58:07;;;;;;;7.22;1.80;;;;;;;18.82;59.04;100014.13;4973474;28;98101;-84
2022/05/27 08:00:35;;;;;;;6.20;1.80;;;;;;;18.89;59.70;100028.66;4961833;28;97366;-84
2022/05/27 08:03:01;;;;;;;3.13;2.00;;;;;;;18.44;60.37;99972.53;4971534;28;96989;-85
2022/05/27 08:05:29;;;;;;;5.55;2.03;;;;;;;18.65;61.13;100023.28;4984720;28;101407;-84
2022/05/27 08:07:56;;;;;;;2.45;1.58;;;;;;;18.76;61.68;100033.16;4979595;28;101339;-84
2022/05/27 08:10:27;;;;;;;4.68;2.08;;;;;;;18.49;62.99;100028.84;4970860;28;97448;-83
2022/05/27 08:12:52;;;;;;;2.13;1.73;;;;;;;18.11;63.57;99962.50;4982699;28;98072;-83
2022/05/27 08:15:19;;;;;;;2.78;1.92;;;;;;;18.41;64.24;100022.38;4976369;28;98073;-88
2022/05/27 08:17:44;;;;;;;2.42;1.50;;;;;;;18.60;64.10;100043.19;4974473;28;97950;-89
2022/05/27 08:20:13;;;;;;;2.90;1.40;;;;;;;18.36;64.31;100025.38;4975242;28;97104;-89
2022/05/27 08:22:38;;;;;;;5.75;2.47;;;;;;;18.40;64.11;100041.94;4985061;28;97053;-89
2022/05/27 08:25:05;;;;;;;3.30;1.45;;;;;;;18.16;64.89;100008.19;4972006;28;100451;-88
2022/05/27 08:27:30;;;;;;;2.47;1.33;;;;;;;18.22;64.64;100022.84;4974005;28;101286;-87
2022/05/27 08:29:56;;;;;;;2.22;1.35;;;;;;;18.37;64.43;100044.81;4977434;28;97437;-91
2022/05/27 08:32:21;;;;;;;4.75;1.35;;;;;;;18.27;64.65;100032.19;5003342;28;96962;-85
2022/05/27 08:40:41;;;;;;;2.03;1.30;;;;;;;18.09;65.83;100044.97;4973065;28;96842;-81
2022/05/27 08:43:34;;;;;;;2.70;1.45;;;;;;;18.10;66.36;100040.50;4968777;28;97742;-81
2022/05/27 08:46:42;;;;;;;3.33;1.30;;;;;;;18.18;66.15;100051.44;5002211;28;98610;-81
2022/05/27 08:49:12;;;;;;;3.38;1.30;;;;;;;18.09;64.73;100062.69;4998779;28;98537;-81
2022/05/27 08:51:41;;;;;;;3.25;1.42;;;;;;;17.94;63.38;100050.47;4991417;28;97232;-81
2022/05/27 08:54:14;;;;;;;3.42;1.67;;;;;;;17.79;62.44;100066.50;4997413;28;97511;-81
2022/05/27 08:59:40;;;;;;;5.93;1.50;;;;;;;17.41;62.91;100066.38;5010312;28;102199;-80
2022/05/27 09:02:25;;;;;;;10.65;1.92;;;;;;;17.55;62.71;100076.94;5019418;28;96781;-80
2022/05/27 09:05:17;;;;;;;5.72;1.90;;;;;;;17.45;62.81;100088.25;5014249;28;97225;-80
2022/05/27 09:07:55;;;;;;;;;;;;;;;17.24;62.80;100091.38;4970801;28;101609;-78
2022/05/27 09:10:46;;;;;;;3.08;1.67;;;;;;;17.12;63.42;100084.22;5013666;28;97964;-79
2022/05/27 09:13:22;;;;;;;8.60;1.80;;;;;;;17.31;63.63;100087.38;4970994;28;97266;-79
2022/05/27 09:15:59;;;;;;;2.40;1.40;;;;;;;17.08;64.32;100086.22;5001053;28;97304;-78
2022/05/27 09:18:37;;;;;;;3.55;1.40;;;;;;;17.21;63.96;100078.31;4998425;28;101419;-81
2022/05/27 09:21:31;;;;;;;2.53;1.27;;;;;;;17.23;64.17;100063.16;4976816;28;101657;-81
2022/05/27 09:24:17;;;;;;;2.80;1.65;;;;;;;17.44;63.69;100082.09;4956035;28;97007;-78
2022/05/27 09:26:58;;;;;;;1.45;1.20;;;;;;;17.48;63.48;100085.41;5009535;28;97243;-77
2022/05/27 09:29:37;;;;;;;2.38;1.52;;;;;;;17.22;64.26;100089.75;4976782;28;105844;-78
2022/05/27 09:32:14;;;;;;;2.03;1.40;;;;;;;17.04;64.89;100076.75;4989148;28;101840;-79
2022/05/27 09:34:42;;;;;;;5.07;2.03;;;;;;;17.13;64.67;100094.75;5020771;28;96927;-78
2022/05/27 09:37:08;;;;;;;6.13;1.40;;;;;;;17.14;64.35;100111.50;4987861;28;98104;-78
2022/05/27 09:39:34;;;;;;;3.85;2.08;;;;;;;16.94;63.14;100097.72;4986543;28;101707;-78
2022/05/27 09:42:24;;;;;;;1.85;1.08;;;;;;;17.03;64.16;100106.88;4988133;28;101453;-79
2022/05/27 09:44:55;;;;;;;3.47;2.08;;;;;;;16.84;64.04;100093.97;4987670;28;97663;-78
2022/05/27 09:47:28;;;;;;;5.57;2.00;;;;;;;16.80;64.61;100104.84;4978317;28;96866;-76
2022/05/27 09:50:00;;;;;;;5.00;1.35;;;;;;;16.79;65.02;100127.84;4990438;28;97501;-77
2022/05/27 09:52:28;;;;;;;4.72;1.85;;;;;;;17.04;65.15;100127.13;4970984;28;100941;-78
2022/05/27 09:54:59;;;;;;;3.92;1.67;;;;;;;16.97;64.69;100107.28;4975464;28;96940;-78
2022/05/27 09:57:28;;;;;;;4.90;1.80;;;;;;;17.15;64.33;100124.63;4970553;28;97427;-78
2022/05/27 09:59:59;;;;;;;3.92;2.17;;;;;;;16.98;64.87;100114.25;4992197;28;97443;-78
2022/05/27 10:02:37;;;;;;;5.53;2.20;;;;;;;16.91;65.33;100131.53;4991097;28;98035;-78
2022/05/27 10:05:05;;;;;;;3.85;1.35;;;;;;;17.14;64.40;100136.22;4987659;28;98030;-78
2022/05/27 10:07:37;;;;;;;3.28;1.60;;;;;;;17.09;64.62;100132.16;4983338;28;97931;-78
2022/05/27 10:10:24;;;;;;;3.22;1.40;;;;;;;17.06;64.58;100130.53;4973359;28;101161;-79
2022/05/27 10:12:50;;;;;;;4.03;1.35;;;;;;;17.20;64.14;100127.84;4966843;28;101551;-78
2022/05/27 10:15:32;;;;;;;4.20;1.60;;;;;;;17.17;64.44;100119.25;4974741;28;97158;-76
2022/05/27 10:18:22;;;;;;;2.05;1.25;;;;;;;17.22;64.33;100125.13;4968690;28;97272;-78
2022/05/27 10:21:01;;;;;;;2.92;1.52;;;;;;;17.22;63.91;100132.19;4992893;28;97434;-78
2022/05/27 10:23:30;;;;;;;5.03;1.33;;;;;;;17.09;64.23;100109.13;4990082;28;97956;-78
2022/05/27 10:25:57;;;;;;;4.45;1.30;;;;;;;17.18;64.26;100135.06;4991316;28;97054;-78
2022/05/27 10:28:30;;;;;;;4.53;1.40;;;;;;;17.07;64.65;100123.44;4955066;28;97485;-78
2022/05/27 10:31:03;;;;;;;3.13;1.40;;;;;;;17.11;65.00;100125.81;4991667;28;97905;-78
2022/05/27 10:33:43;;;;;;;3.42;1.35;;;;;;;17.01;65.09;100089.34;4970803;28;101714;-79
2022/05/27 10:36:27;;;;;;;3.53;1.27;;;;;;;17.13;64.74;100125.69;4957567;28;96966;-80
2022/05/27 10:38:59;;;;;;;2.50;1.20;;;;;;;17.19;64.34;100117.31;4991337;28;97359;-79
2022/05/27 10:41:34;;;;;;;3.38;1.77;;;;;;;17.37;64.42;100128.56;5007014;28;101053;-79
2022/05/27 10:44:30;;;;;;;3.50;1.38;;;;;;;17.22;64.73;100098.59;4996935;28;101448;-79
2022/05/27 10:46:58;;;;;;;2.17;1.45;;;;;;;17.32;64.75;100110.28;5017806;28;98406;-80
2022/05/27 10:49:54;;;;;;;1.42;1.25;;;;;;;17.36;64.98;100113.59;5001983;28;97230;-79
2022/05/27 10:52:35;;;;;;;5.65;1.67;;;;;;;17.35;65.01;100107.44;4994039;28;97995;-79
2022/05/27 10:55:36;;;;;;;2.22;1.75;;;;;;;17.31;64.78;100082.06;4980287;28;101246;-79
2022/05/27 11:04:38;;;;;;;2.35;1.50;;;;;;;17.73;64.36;100101.38;5004701;28;101323;-79
2022/05/27 11:07:11;;;;;;;1.40;1.20;;;;;;;17.82;64.24;100099.94;4990501;28;97554;-80
2022/05/27 11:09:49;;;;;;;2.08;1.50;;;;;;;17.77;63.99;100110.88;5000136;28;97037;-79
2022/05/27 11:15:10;;;;;;;2.15;1.30;;;;;;;17.76;63.13;100100.34;4987628;28;97406;-79
2022/05/27 11:15:33;;;;;;;4.90;1.85;;;;;;;17.68;63.11;100092.88;4982539;28;101983;-80
2022/05/27 11:18:29;;;;;;;2.87;1.40;;;;;;;17.59;62.38;100080.22;4976809;28;100945;-79
2022/05/27 11:21:12;;;;;;;2.97;1.40;;;;;;;17.62;62.33;100078.22;4965278;28;96947;-79
2022/05/27 11:23:49;;;;;;;2.17;1.30;;;;;;;17.49;62.58;100081.81;5002053;28;97344;-78
2022/05/27 11:26:24;;;;;;;2.92;1.45;;;;;;;17.53;62.91;100072.69;4983082;28;98236;-77
2022/05/27 11:29:02;;;;;;;4.13;1.58;;;;;;;17.41;62.65;100061.94;4998192;28;100609;-78
2022/05/27 11:31:56;;;;;;;2.47;1.20;;;;;;;17.36;62.30;100093.22;4990497;28;97250;-77
2022/05/27 11:34:31;;;;;;;2.90;1.30;;;;;;;17.29;62.63;100088.44;4980063;28;97173;-77
2022/05/27 11:37:25;;;;;;;2.53;1.55;;;;;;;17.16;62.71;100091.00;4972255;28;101199;-79
2022/05/27 11:40:03;;;;;;;2.08;1.33;;;;;;;17.20;62.76;100087.22;4993545;28;97471;-78
2022/05/27 11:42:55;;;;;;;1.90;1.20;;;;;;;17.10;63.08;100070.19;4989500;28;97221;-78
2022/05/27 11:45:25;;;;;;;3.50;1.40;;;;;;;17.14;63.47;100043.38;5006286;28;97574;-78
2022/05/27 11:48:08;;;;;;;2.58;1.50;;;;;;;17.07;62.79;100055.34;4983736;28;100358;-78
2022/05/27 11:50:46;;;;;;;3.03;1.88;;;;;;;17.13;63.08;100057.59;4988482;28;101466;-78
2022/05/27 11:53:24;;;;;;;2.17;1.63;;;;;;;17.08;62.73;100074.78;4974512;28;96869;-78
2022/05/27 11:55:49;;;;;;;3.45;1.52;;;;;;;16.90;63.06;100022.00;4987013;28;97486;-78
2022/05/27 11:58:22;;;;;;;2.20;1.65;;;;;;;17.09;63.11;100045.47;5000715;28;97846;-80
2022/05/27 12:00:59;;;;;;;5.90;5.40;;;;;;;17.07;63.10;100081.00;5004208;28;101105;-74
2022/05/27 12:03:37;;;;;;;3.17;1.23;;;;;;;17.19;63.30;100066.94;4997453;28;97336;-79
2022/05/27 12:06:10;;;;;;;1.80;1.23;;;;;;;17.25;63.23;100081.59;4958601;28;97260;-78
2022/05/27 12:08:58;;;;;;;1.45;0.90;;;;;;;17.22;62.72;100080.03;4968254;28;101975;-78
2022/05/27 12:11:45;;;;;;;8.30;1.38;;;;;;;17.12;63.08;100063.84;4973159;28;101487;-78
2022/05/27 12:14:32;;;;;;;2.58;1.52;;;;;;;17.17;63.22;100068.88;4990314;28;96836;-80